Toledo, OH (43661)

10:16 PM EST on January 29, 2015 (GMT -0500)
West Toledo | Change Station
CLOSE
Current Station
Personal Weather Station
Location: Toledo, OH
Elevation: 660 ft
Nearby Weather Stations

Elev 660 ft 41.70 °N, 83.61 °W | Updated 1 minute ago

Overcast
Overcast
32.1 °F
Feels Like 26 °F
N
6.0
Wind Variable Wind from North
Gusts 6.0 mph

Today
High -- | Low -- °F
--% Chance of Precip.
Yesterday
High -- | Low -- °F
Precip. -- in
7:49 AM 5:46 PM
Waxing Gibbous, 79% visible
Pressure 30.07 in
Visibility 9.0 miles
Clouds Scattered Clouds 1800 ft
Mostly Cloudy 2600 ft
Overcast 4000 ft
Windchill 26 °F
Dew Point 26 °F
Humidity 78%
Rainfall 0.11 in
Snow Depth Not available.
UV 0 out of 12
Pollen .10 out of 12
Air Quality Not available.
Flu Activity Not available.
METAR KTDZ 300253Z AUTO 29011KT 9SM UP SCT018 BKN026 OVC040 01/M02 A3005 RMK AO2 UPB50 SLP181 P0000 60000 T00061022 51030 TSNO

More Conditions Fewer Conditions

Pressure 30.07 in
Visibility 9.0 miles
Clouds Scattered Clouds 1800 ft
Mostly Cloudy 2600 ft
Overcast 4000 ft
Windchill 26 °F
Dew Point 26 °F
Humidity 78%
Rainfall 0.11 in
Snow Depth Not available.
UV 0 out of 12
Pollen .10 out of 12
Air Quality Not available.
Flu Activity Not available.
METAR KTDZ 300253Z AUTO 29011KT 9SM UP SCT018 BKN026 OVC040 01/M02 A3005 RMK AO2 UPB50 SLP181 P0000 60000 T00061022 51030 TSNO

More Conditions Fewer Conditions

10-Day Weather Forecast

Almanac

Astronomy

Jan. 29, 2015 Rise Set
Actual Time
Civil Twilight
Nautical Twilight
Astronomical Twilight
Moon
Length of Visible Light
Length of Day
Tomorrow will be .
, % of the Moon is Illuminated

Today's Extremes

State Highs State Lows

Community

WunderPhotos

Upload Photos

1,791,702 photos uploaded!

WunderBlogs® & News

Nearby

Air Quality

  Air Quality AQ Index Pollutant
Not available.

Snow Depth

Station Depth Elevation

Earthquake Activity

City Distance Mag. Time & Date
Minimum magnitude displayed is 2.5.

Coastal Water Temperatures

Place Temperature

Nearby Weather Stations